Terminal Aerodrome Forecast
Issued by NWS El Paso, TX

Home | Current Version | Previous Version | Text Only | Print | Product List | Glossary On
Versions: 1 2 3 4 5 6 7 8 9 10 11 12 13
000
FTUS44 KEPZ 282300
TAFELP
TAF
KELP 282332Z 2900/2924 28010G17KT P6SM SKC
     FM290200 30008KT P6SM SCT250
     FM291500 33008KT P6SM BKN250
     FM292100 24009KT P6SM BKN250=

USA.gov is the U.S. government's official web portal to all federal, state and local government web resources and services.